sensor_id;sensor_type;location;lat;lon;timestamp;P1;durP1;ratioP1;P2;durP2;ratioP2
7383;SDS011;3733;47.994;8.820;2024-03-08T00:01:09;33.27;;;17.90;;
7383;SDS011;3733;47.994;8.820;2024-03-08T00:03:35;38.87;;;19.10;;
7383;SDS011;3733;47.994;8.820;2024-03-08T00:06:00;36.10;;;17.17;;
7383;SDS011;3733;47.994;8.820;2024-03-08T00:08:26;36.03;;;17.57;;
7383;SDS011;3733;47.994;8.820;2024-03-08T00:10:52;38.40;;;16.60;;
7383;SDS011;3733;47.994;8.820;2024-03-08T00:13:17;32.17;;;17.20;;
7383;SDS011;3733;47.994;8.820;2024-03-08T00:15:43;37.10;;;18.97;;
7383;SDS011;3733;47.994;8.820;2024-03-08T00:18:09;38.27;;;19.00;;
7383;SDS011;3733;47.994;8.820;2024-03-08T00:20:35;39.60;;;19.77;;
7383;SDS011;3733;47.994;8.820;2024-03-08T00:23:00;37.00;;;19.60;;
7383;SDS011;3733;47.994;8.820;2024-03-08T00:25:26;39.90;;;18.67;;
7383;SDS011;3733;47.994;8.820;2024-03-08T00:27:52;37.23;;;18.33;;
7383;SDS011;3733;47.994;8.820;2024-03-08T00:30:21;34.83;;;17.73;;
7383;SDS011;3733;47.994;8.820;2024-03-08T00:32:48;39.27;;;18.57;;
7383;SDS011;3733;47.994;8.820;2024-03-08T00:35:13;41.17;;;20.00;;
7383;SDS011;3733;47.994;8.820;2024-03-08T00:37:39;38.87;;;19.63;;
7383;SDS011;3733;47.994;8.820;2024-03-08T00:40:06;38.43;;;19.87;;
7383;SDS011;3733;47.994;8.820;2024-03-08T00:42:34;33.77;;;18.10;;
7383;SDS011;3733;47.994;8.820;2024-03-08T00:45:00;34.50;;;18.17;;
7383;SDS011;3733;47.994;8.820;2024-03-08T00:47:26;35.50;;;18.10;;
7383;SDS011;3733;47.994;8.820;2024-03-08T00:49:52;37.40;;;17.07;;
7383;SDS011;3733;47.994;8.820;2024-03-08T00:52:18;34.00;;;18.40;;
7383;SDS011;3733;47.994;8.820;2024-03-08T00:54:44;38.53;;;19.83;;
7383;SDS011;3733;47.994;8.820;2024-03-08T00:57:10;35.83;;;18.27;;
7383;SDS011;3733;47.994;8.820;2024-03-08T00:59:37;33.60;;;17.87;;
7383;SDS011;3733;47.994;8.820;2024-03-08T01:02:03;37.87;;;19.30;;
7383;SDS011;3733;47.994;8.820;2024-03-08T01:04:29;36.87;;;19.07;;
7383;SDS011;3733;47.994;8.820;2024-03-08T01:06:55;34.33;;;18.00;;
7383;SDS011;3733;47.994;8.820;2024-03-08T01:09:22;34.03;;;17.70;;
7383;SDS011;3733;47.994;8.820;2024-03-08T01:11:48;38.23;;;19.77;;
7383;SDS011;3733;47.994;8.820;2024-03-08T01:14:14;39.70;;;18.83;;
7383;SDS011;3733;47.994;8.820;2024-03-08T01:16:40;37.43;;;18.90;;
7383;SDS011;3733;47.994;8.820;2024-03-08T01:19:06;38.20;;;20.00;;
7383;SDS011;3733;47.994;8.820;2024-03-08T01:21:31;41.70;;;20.50;;
7383;SDS011;3733;47.994;8.820;2024-03-08T01:23:57;37.80;;;19.47;;
7383;SDS011;3733;47.994;8.820;2024-03-08T01:26:23;37.70;;;19.67;;
7383;SDS011;3733;47.994;8.820;2024-03-08T01:28:49;39.83;;;19.40;;
7383;SDS011;3733;47.994;8.820;2024-03-08T01:31:15;39.90;;;19.43;;
7383;SDS011;3733;47.994;8.820;2024-03-08T01:33:41;40.17;;;19.20;;
7383;SDS011;3733;47.994;8.820;2024-03-08T01:36:06;38.73;;;19.70;;
7383;SDS011;3733;47.994;8.820;2024-03-08T01:38:32;43.63;;;19.30;;
7383;SDS011;3733;47.994;8.820;2024-03-08T01:40:58;40.50;;;19.17;;
7383;SDS011;3733;47.994;8.820;2024-03-08T01:43:28;38.17;;;19.40;;
7383;SDS011;3733;47.994;8.820;2024-03-08T01:45:55;36.13;;;19.50;;
7383;SDS011;3733;47.994;8.820;2024-03-08T01:48:23;39.30;;;18.30;;
7383;SDS011;3733;47.994;8.820;2024-03-08T01:50:49;41.33;;;18.60;;
7383;SDS011;3733;47.994;8.820;2024-03-08T01:53:16;37.63;;;18.60;;
7383;SDS011;3733;47.994;8.820;2024-03-08T01:55:45;35.47;;;18.67;;
7383;SDS011;3733;47.994;8.820;2024-03-08T01:58:12;38.03;;;17.70;;
7383;SDS011;3733;47.994;8.820;2024-03-08T02:00:40;35.53;;;18.70;;
7383;SDS011;3733;47.994;8.820;2024-03-08T02:03:08;41.03;;;19.23;;
7383;SDS011;3733;47.994;8.820;2024-03-08T02:05:35;37.57;;;19.07;;
7383;SDS011;3733;47.994;8.820;2024-03-08T02:08:03;37.40;;;18.23;;
7383;SDS011;3733;47.994;8.820;2024-03-08T02:10:32;37.80;;;18.13;;
7383;SDS011;3733;47.994;8.820;2024-03-08T02:13:03;39.37;;;19.50;;
7383;SDS011;3733;47.994;8.820;2024-03-08T02:15:50;36.60;;;20.03;;
7383;SDS011;3733;47.994;8.820;2024-03-08T02:18:15;38.97;;;20.70;;
7383;SDS011;3733;47.994;8.820;2024-03-08T02:20:42;44.47;;;20.80;;
7383;SDS011;3733;47.994;8.820;2024-03-08T02:23:08;41.17;;;20.73;;
7383;SDS011;3733;47.994;8.820;2024-03-08T02:25:34;46.47;;;20.77;;
7383;SDS011;3733;47.994;8.820;2024-03-08T02:28:00;43.53;;;19.93;;
7383;SDS011;3733;47.994;8.820;2024-03-08T02:30:26;43.07;;;19.73;;
7383;SDS011;3733;47.994;8.820;2024-03-08T02:32:55;44.43;;;19.63;;
7383;SDS011;3733;47.994;8.820;2024-03-08T02:35:21;44.27;;;20.70;;
7383;SDS011;3733;47.994;8.820;2024-03-08T02:37:46;41.40;;;18.80;;
7383;SDS011;3733;47.994;8.820;2024-03-08T02:40:12;45.03;;;20.70;;
7383;SDS011;3733;47.994;8.820;2024-03-08T02:42:39;36.40;;;18.73;;
7383;SDS011;3733;47.994;8.820;2024-03-08T02:45:04;45.30;;;19.70;;
7383;SDS011;3733;47.994;8.820;2024-03-08T02:47:31;40.30;;;20.53;;
7383;SDS011;3733;47.994;8.820;2024-03-08T02:49:57;42.97;;;20.50;;
7383;SDS011;3733;47.994;8.820;2024-03-08T02:52:22;37.70;;;18.90;;
7383;SDS011;3733;47.994;8.820;2024-03-08T02:54:48;41.37;;;20.93;;
7383;SDS011;3733;47.994;8.820;2024-03-08T02:57:14;36.33;;;18.40;;
7383;SDS011;3733;47.994;8.820;2024-03-08T02:59:41;42.30;;;20.33;;
7383;SDS011;3733;47.994;8.820;2024-03-08T03:02:07;44.47;;;18.93;;
7383;SDS011;3733;47.994;8.820;2024-03-08T03:04:35;48.53;;;19.50;;
7383;SDS011;3733;47.994;8.820;2024-03-08T03:07:01;39.90;;;19.00;;
7383;SDS011;3733;47.994;8.820;2024-03-08T03:09:26;41.67;;;21.00;;
7383;SDS011;3733;47.994;8.820;2024-03-08T03:11:55;41.33;;;19.90;;
7383;SDS011;3733;47.994;8.820;2024-03-08T03:14:21;44.93;;;19.90;;
7383;SDS011;3733;47.994;8.820;2024-03-08T03:16:47;44.93;;;20.53;;
7383;SDS011;3733;47.994;8.820;2024-03-08T03:19:13;48.50;;;21.13;;
7383;SDS011;3733;47.994;8.820;2024-03-08T03:21:40;48.23;;;20.60;;
7383;SDS011;3733;47.994;8.820;2024-03-08T03:24:08;42.43;;;20.57;;
7383;SDS011;3733;47.994;8.820;2024-03-08T03:26:38;45.20;;;21.73;;
7383;SDS011;3733;47.994;8.820;2024-03-08T03:29:07;45.10;;;19.67;;
7383;SDS011;3733;47.994;8.820;2024-03-08T03:31:34;45.07;;;19.20;;
7383;SDS011;3733;47.994;8.820;2024-03-08T03:34:01;38.83;;;19.53;;
7383;SDS011;3733;47.994;8.820;2024-03-08T03:36:28;40.47;;;20.90;;
7383;SDS011;3733;47.994;8.820;2024-03-08T03:38:55;42.03;;;21.03;;
7383;SDS011;3733;47.994;8.820;2024-03-08T03:41:36;40.23;;;19.00;;
7383;SDS011;3733;47.994;8.820;2024-03-08T03:44:01;47.27;;;22.57;;
7383;SDS011;3733;47.994;8.820;2024-03-08T03:46:27;36.70;;;20.20;;
7383;SDS011;3733;47.994;8.820;2024-03-08T03:48:53;43.27;;;20.73;;
7383;SDS011;3733;47.994;8.820;2024-03-08T03:51:20;41.63;;;20.90;;
7383;SDS011;3733;47.994;8.820;2024-03-08T03:53:46;44.10;;;21.30;;
7383;SDS011;3733;47.994;8.820;2024-03-08T03:56:12;44.27;;;22.40;;
7383;SDS011;3733;47.994;8.820;2024-03-08T03:58:37;49.90;;;20.80;;
7383;SDS011;3733;47.994;8.820;2024-03-08T04:01:04;45.63;;;21.93;;
7383;SDS011;3733;47.994;8.820;2024-03-08T04:03:30;51.87;;;22.20;;
7383;SDS011;3733;47.994;8.820;2024-03-08T04:05:56;43.23;;;20.90;;
7383;SDS011;3733;47.994;8.820;2024-03-08T04:08:22;44.37;;;20.97;;
7383;SDS011;3733;47.994;8.820;2024-03-08T04:10:48;43.93;;;20.80;;
7383;SDS011;3733;47.994;8.820;2024-03-08T04:13:16;56.60;;;23.07;;
7383;SDS011;3733;47.994;8.820;2024-03-08T04:15:41;44.10;;;20.20;;
7383;SDS011;3733;47.994;8.820;2024-03-08T04:18:09;38.13;;;19.43;;
7383;SDS011;3733;47.994;8.820;2024-03-08T04:20:35;41.77;;;20.40;;
7383;SDS011;3733;47.994;8.820;2024-03-08T04:23:00;46.37;;;22.70;;
7383;SDS011;3733;47.994;8.820;2024-03-08T04:25:27;40.93;;;20.77;;
7383;SDS011;3733;47.994;8.820;2024-03-08T04:27:52;45.27;;;21.07;;
7383;SDS011;3733;47.994;8.820;2024-03-08T04:30:18;54.10;;;21.43;;
7383;SDS011;3733;47.994;8.820;2024-03-08T04:32:46;43.20;;;21.97;;
7383;SDS011;3733;47.994;8.820;2024-03-08T04:35:12;45.60;;;21.40;;
7383;SDS011;3733;47.994;8.820;2024-03-08T04:37:38;47.60;;;20.37;;
7383;SDS011;3733;47.994;8.820;2024-03-08T04:40:04;42.23;;;20.27;;
7383;SDS011;3733;47.994;8.820;2024-03-08T04:42:30;49.97;;;22.40;;
7383;SDS011;3733;47.994;8.820;2024-03-08T04:45:00;50.47;;;23.20;;
7383;SDS011;3733;47.994;8.820;2024-03-08T04:47:25;46.17;;;20.97;;
7383;SDS011;3733;47.994;8.820;2024-03-08T04:49:51;44.77;;;21.07;;
7383;SDS011;3733;47.994;8.820;2024-03-08T04:52:17;51.13;;;22.60;;
7383;SDS011;3733;47.994;8.820;2024-03-08T04:54:43;52.23;;;22.83;;
7383;SDS011;3733;47.994;8.820;2024-03-08T04:57:09;54.70;;;23.07;;
7383;SDS011;3733;47.994;8.820;2024-03-08T04:59:36;43.43;;;20.33;;
7383;SDS011;3733;47.994;8.820;2024-03-08T05:02:02;48.53;;;21.33;;
7383;SDS011;3733;47.994;8.820;2024-03-08T05:04:28;43.80;;;21.10;;
7383;SDS011;3733;47.994;8.820;2024-03-08T05:06:54;43.83;;;21.53;;
7383;SDS011;3733;47.994;8.820;2024-03-08T05:09:20;46.13;;;22.43;;
7383;SDS011;3733;47.994;8.820;2024-03-08T05:11:46;42.63;;;20.90;;
7383;SDS011;3733;47.994;8.820;2024-03-08T05:14:12;47.43;;;22.60;;
7383;SDS011;3733;47.994;8.820;2024-03-08T05:16:44;50.40;;;21.67;;
7383;SDS011;3733;47.994;8.820;2024-03-08T05:19:13;53.27;;;24.20;;
7383;SDS011;3733;47.994;8.820;2024-03-08T05:21:51;45.70;;;21.27;;
7383;SDS011;3733;47.994;8.820;2024-03-08T05:24:16;51.37;;;23.20;;
7383;SDS011;3733;47.994;8.820;2024-03-08T05:26:42;50.37;;;22.53;;
7383;SDS011;3733;47.994;8.820;2024-03-08T05:29:08;50.57;;;22.20;;
7383;SDS011;3733;47.994;8.820;2024-03-08T05:31:45;43.77;;;22.90;;
7383;SDS011;3733;47.994;8.820;2024-03-08T05:34:17;51.27;;;22.23;;
7383;SDS011;3733;47.994;8.820;2024-03-08T05:36:44;47.47;;;20.97;;
7383;SDS011;3733;47.994;8.820;2024-03-08T05:39:17;44.60;;;22.63;;
7383;SDS011;3733;47.994;8.820;2024-03-08T05:41:44;49.43;;;22.10;;
7383;SDS011;3733;47.994;8.820;2024-03-08T05:44:10;49.17;;;23.57;;
7383;SDS011;3733;47.994;8.820;2024-03-08T05:46:37;42.10;;;22.03;;
7383;SDS011;3733;47.994;8.820;2024-03-08T05:49:03;57.03;;;23.40;;
7383;SDS011;3733;47.994;8.820;2024-03-08T05:51:31;43.60;;;20.90;;
7383;SDS011;3733;47.994;8.820;2024-03-08T05:53:59;41.03;;;20.40;;
7383;SDS011;3733;47.994;8.820;2024-03-08T05:56:32;42.70;;;22.10;;
7383;SDS011;3733;47.994;8.820;2024-03-08T05:58:58;38.50;;;19.47;;
7383;SDS011;3733;47.994;8.820;2024-03-08T06:01:24;46.60;;;20.90;;
7383;SDS011;3733;47.994;8.820;2024-03-08T06:03:50;44.30;;;20.97;;
7383;SDS011;3733;47.994;8.820;2024-03-08T06:06:19;43.53;;;20.63;;
7383;SDS011;3733;47.994;8.820;2024-03-08T06:08:46;41.70;;;20.97;;
7383;SDS011;3733;47.994;8.820;2024-03-08T06:11:14;47.00;;;22.43;;
7383;SDS011;3733;47.994;8.820;2024-03-08T06:13:40;37.00;;;20.33;;
7383;SDS011;3733;47.994;8.820;2024-03-08T06:16:05;51.53;;;22.47;;
7383;SDS011;3733;47.994;8.820;2024-03-08T06:18:33;48.03;;;22.03;;
7383;SDS011;3733;47.994;8.820;2024-03-08T06:21:01;43.90;;;20.50;;
7383;SDS011;3733;47.994;8.820;2024-03-08T06:23:29;42.10;;;20.67;;
7383;SDS011;3733;47.994;8.820;2024-03-08T06:25:55;47.80;;;20.07;;
7383;SDS011;3733;47.994;8.820;2024-03-08T06:28:22;41.63;;;19.47;;
7383;SDS011;3733;47.994;8.820;2024-03-08T06:30:48;42.57;;;20.20;;
7383;SDS011;3733;47.994;8.820;2024-03-08T06:33:15;45.07;;;22.00;;
7383;SDS011;3733;47.994;8.820;2024-03-08T06:35:41;47.87;;;22.30;;
7383;SDS011;3733;47.994;8.820;2024-03-08T06:38:07;50.33;;;21.90;;
7383;SDS011;3733;47.994;8.820;2024-03-08T06:40:32;45.10;;;20.80;;
7383;SDS011;3733;47.994;8.820;2024-03-08T06:42:58;45.00;;;20.63;;
7383;SDS011;3733;47.994;8.820;2024-03-08T06:45:24;57.43;;;21.57;;
7383;SDS011;3733;47.994;8.820;2024-03-08T06:47:50;52.57;;;21.77;;
7383;SDS011;3733;47.994;8.820;2024-03-08T06:50:16;44.67;;;20.33;;
7383;SDS011;3733;47.994;8.820;2024-03-08T06:52:42;47.97;;;20.37;;
7383;SDS011;3733;47.994;8.820;2024-03-08T06:55:09;41.60;;;19.70;;
7383;SDS011;3733;47.994;8.820;2024-03-08T06:57:38;40.13;;;18.40;;
7383;SDS011;3733;47.994;8.820;2024-03-08T07:00:06;45.33;;;21.70;;
7383;SDS011;3733;47.994;8.820;2024-03-08T07:02:34;39.83;;;19.57;;
7383;SDS011;3733;47.994;8.820;2024-03-08T07:05:00;38.90;;;18.80;;
7383;SDS011;3733;47.994;8.820;2024-03-08T07:07:27;36.10;;;17.40;;
7383;SDS011;3733;47.994;8.820;2024-03-08T07:09:52;43.03;;;18.60;;
7383;SDS011;3733;47.994;8.820;2024-03-08T07:12:18;35.70;;;17.00;;
7383;SDS011;3733;47.994;8.820;2024-03-08T07:14:45;44.40;;;20.27;;
7383;SDS011;3733;47.994;8.820;2024-03-08T07:17:12;39.30;;;18.83;;
7383;SDS011;3733;47.994;8.820;2024-03-08T07:19:37;49.27;;;19.10;;
7383;SDS011;3733;47.994;8.820;2024-03-08T07:22:04;39.47;;;17.20;;
7383;SDS011;3733;47.994;8.820;2024-03-08T07:24:33;33.77;;;16.30;;
7383;SDS011;3733;47.994;8.820;2024-03-08T07:27:02;37.97;;;15.80;;
7383;SDS011;3733;47.994;8.820;2024-03-08T07:29:33;35.60;;;16.13;;
7383;SDS011;3733;47.994;8.820;2024-03-08T07:31:59;37.97;;;17.83;;
7383;SDS011;3733;47.994;8.820;2024-03-08T07:34:37;33.83;;;16.07;;
7383;SDS011;3733;47.994;8.820;2024-03-08T07:37:04;40.63;;;18.30;;
7383;SDS011;3733;47.994;8.820;2024-03-08T07:39:31;46.23;;;18.30;;
7383;SDS011;3733;47.994;8.820;2024-03-08T07:41:57;38.57;;;17.67;;
7383;SDS011;3733;47.994;8.820;2024-03-08T07:44:22;34.63;;;16.70;;
7383;SDS011;3733;47.994;8.820;2024-03-08T07:46:48;36.83;;;16.00;;
7383;SDS011;3733;47.994;8.820;2024-03-08T07:49:14;32.97;;;15.80;;
7383;SDS011;3733;47.994;8.820;2024-03-08T07:51:40;35.13;;;17.17;;
7383;SDS011;3733;47.994;8.820;2024-03-08T07:54:06;36.57;;;16.93;;
7383;SDS011;3733;47.994;8.820;2024-03-08T07:56:34;41.57;;;17.30;;
7383;SDS011;3733;47.994;8.820;2024-03-08T07:59:01;32.57;;;16.07;;
7383;SDS011;3733;47.994;8.820;2024-03-08T08:01:29;34.97;;;16.93;;
7383;SDS011;3733;47.994;8.820;2024-03-08T08:03:55;34.03;;;15.60;;
7383;SDS011;3733;47.994;8.820;2024-03-08T08:06:21;34.37;;;16.93;;
7383;SDS011;3733;47.994;8.820;2024-03-08T08:08:47;35.40;;;16.73;;
7383;SDS011;3733;47.994;8.820;2024-03-08T08:11:13;34.37;;;16.40;;
7383;SDS011;3733;47.994;8.820;2024-03-08T08:13:42;30.20;;;14.73;;
7383;SDS011;3733;47.994;8.820;2024-03-08T08:16:08;32.23;;;15.37;;
7383;SDS011;3733;47.994;8.820;2024-03-08T08:18:35;28.63;;;13.23;;
7383;SDS011;3733;47.994;8.820;2024-03-08T08:21:02;31.10;;;15.23;;
7383;SDS011;3733;47.994;8.820;2024-03-08T08:23:28;29.77;;;13.93;;
7383;SDS011;3733;47.994;8.820;2024-03-08T08:25:55;24.73;;;13.13;;
7383;SDS011;3733;47.994;8.820;2024-03-08T08:28:20;33.10;;;14.53;;
7383;SDS011;3733;47.994;8.820;2024-03-08T08:30:46;25.37;;;12.97;;
7383;SDS011;3733;47.994;8.820;2024-03-08T08:33:13;23.60;;;12.47;;
7383;SDS011;3733;47.994;8.820;2024-03-08T08:35:40;28.20;;;13.43;;
7383;SDS011;3733;47.994;8.820;2024-03-08T08:38:05;27.60;;;13.80;;
7383;SDS011;3733;47.994;8.820;2024-03-08T08:40:32;27.70;;;13.07;;
7383;SDS011;3733;47.994;8.820;2024-03-08T08:42:58;23.77;;;12.77;;
7383;SDS011;3733;47.994;8.820;2024-03-08T08:45:24;23.47;;;12.90;;
7383;SDS011;3733;47.994;8.820;2024-03-08T08:47:50;29.37;;;13.63;;
7383;SDS011;3733;47.994;8.820;2024-03-08T08:50:17;23.20;;;12.00;;
7383;SDS011;3733;47.994;8.820;2024-03-08T08:52:48;25.80;;;12.50;;
7383;SDS011;3733;47.994;8.820;2024-03-08T08:55:14;24.37;;;12.83;;
7383;SDS011;3733;47.994;8.820;2024-03-08T08:57:40;24.53;;;12.77;;
7383;SDS011;3733;47.994;8.820;2024-03-08T09:00:06;27.77;;;12.50;;
7383;SDS011;3733;47.994;8.820;2024-03-08T09:02:33;23.87;;;12.00;;
7383;SDS011;3733;47.994;8.820;2024-03-08T09:04:59;23.80;;;12.47;;
7383;SDS011;3733;47.994;8.820;2024-03-08T09:07:26;22.10;;;12.67;;
7383;SDS011;3733;47.994;8.820;2024-03-08T09:09:52;30.13;;;14.23;;
7383;SDS011;3733;47.994;8.820;2024-03-08T09:12:22;35.63;;;13.90;;
7383;SDS011;3733;47.994;8.820;2024-03-08T09:14:48;26.23;;;12.57;;
7383;SDS011;3733;47.994;8.820;2024-03-08T09:17:14;27.50;;;14.20;;
7383;SDS011;3733;47.994;8.820;2024-03-08T09:19:42;21.43;;;12.93;;
7383;SDS011;3733;47.994;8.820;2024-03-08T09:22:08;26.03;;;13.10;;
7383;SDS011;3733;47.994;8.820;2024-03-08T09:24:34;27.63;;;12.67;;
7383;SDS011;3733;47.994;8.820;2024-03-08T09:26:59;28.60;;;13.20;;
7383;SDS011;3733;47.994;8.820;2024-03-08T09:29:25;29.03;;;13.73;;
7383;SDS011;3733;47.994;8.820;2024-03-08T09:31:51;26.33;;;13.23;;
7383;SDS011;3733;47.994;8.820;2024-03-08T09:34:16;26.90;;;14.23;;
7383;SDS011;3733;47.994;8.820;2024-03-08T09:36:43;26.57;;;14.77;;
7383;SDS011;3733;47.994;8.820;2024-03-08T09:39:09;28.27;;;13.90;;
7383;SDS011;3733;47.994;8.820;2024-03-08T09:41:41;30.27;;;14.23;;
7383;SDS011;3733;47.994;8.820;2024-03-08T09:44:08;26.23;;;13.30;;
7383;SDS011;3733;47.994;8.820;2024-03-08T09:46:34;26.80;;;13.57;;
7383;SDS011;3733;47.994;8.820;2024-03-08T09:49:00;23.90;;;12.47;;
7383;SDS011;3733;47.994;8.820;2024-03-08T09:51:29;28.17;;;13.03;;
7383;SDS011;3733;47.994;8.820;2024-03-08T09:53:58;26.13;;;12.57;;
7383;SDS011;3733;47.994;8.820;2024-03-08T09:56:24;30.17;;;14.30;;
7383;SDS011;3733;47.994;8.820;2024-03-08T09:58:52;26.83;;;13.80;;
7383;SDS011;3733;47.994;8.820;2024-03-08T10:01:53;26.23;;;12.27;;
7383;SDS011;3733;47.994;8.820;2024-03-08T10:04:21;31.43;;;13.83;;
7383;SDS011;3733;47.994;8.820;2024-03-08T10:06:47;22.37;;;12.07;;
7383;SDS011;3733;47.994;8.820;2024-03-08T10:09:13;22.17;;;13.93;;
7383;SDS011;3733;47.994;8.820;2024-03-08T10:11:40;26.80;;;13.20;;
7383;SDS011;3733;47.994;8.820;2024-03-08T10:14:07;23.07;;;12.57;;
7383;SDS011;3733;47.994;8.820;2024-03-08T10:16:34;26.00;;;12.53;;
7383;SDS011;3733;47.994;8.820;2024-03-08T10:19:00;26.40;;;13.17;;
7383;SDS011;3733;47.994;8.820;2024-03-08T10:21:26;28.70;;;12.73;;
7383;SDS011;3733;47.994;8.820;2024-03-08T10:23:52;23.10;;;12.20;;
7383;SDS011;3733;47.994;8.820;2024-03-08T10:26:18;28.40;;;14.10;;
7383;SDS011;3733;47.994;8.820;2024-03-08T10:28:50;26.40;;;12.80;;
7383;SDS011;3733;47.994;8.820;2024-03-08T10:31:17;23.93;;;12.90;;
7383;SDS011;3733;47.994;8.820;2024-03-08T10:33:44;28.27;;;13.13;;
7383;SDS011;3733;47.994;8.820;2024-03-08T10:36:11;27.13;;;12.70;;
7383;SDS011;3733;47.994;8.820;2024-03-08T10:38:38;21.33;;;11.83;;
7383;SDS011;3733;47.994;8.820;2024-03-08T10:41:14;26.33;;;13.03;;
7383;SDS011;3733;47.994;8.820;2024-03-08T10:49:24;30.33;;;14.07;;
7383;SDS011;3733;47.994;8.820;2024-03-08T10:51:54;23.77;;;13.57;;
7383;SDS011;3733;47.994;8.820;2024-03-08T10:54:22;29.73;;;13.97;;
7383;SDS011;3733;47.994;8.820;2024-03-08T10:56:50;25.17;;;13.00;;
7383;SDS011;3733;47.994;8.820;2024-03-08T10:59:17;32.40;;;12.87;;
7383;SDS011;3733;47.994;8.820;2024-03-08T11:01:44;25.03;;;13.43;;
7383;SDS011;3733;47.994;8.820;2024-03-08T11:04:09;26.40;;;14.67;;
7383;SDS011;3733;47.994;8.820;2024-03-08T11:15:00;24.80;;;13.10;;
7383;SDS011;3733;47.994;8.820;2024-03-08T11:19:58;27.20;;;14.60;;
7383;SDS011;3733;47.994;8.820;2024-03-08T11:22:27;26.20;;;14.20;;
7383;SDS011;3733;47.994;8.820;2024-03-08T11:24:59;30.33;;;14.50;;
7383;SDS011;3733;47.994;8.820;2024-03-08T11:27:30;25.10;;;13.90;;
7383;SDS011;3733;47.994;8.820;2024-03-08T11:30:03;29.87;;;14.53;;
7383;SDS011;3733;47.994;8.820;2024-03-08T11:32:52;26.47;;;13.93;;
7383;SDS011;3733;47.994;8.820;2024-03-08T11:35:18;25.20;;;13.00;;
7383;SDS011;3733;47.994;8.820;2024-03-08T11:37:45;30.43;;;14.50;;
7383;SDS011;3733;47.994;8.820;2024-03-08T11:40:13;26.83;;;14.00;;
7383;SDS011;3733;47.994;8.820;2024-03-08T11:42:43;28.83;;;14.90;;
7383;SDS011;3733;47.994;8.820;2024-03-08T11:45:11;26.00;;;14.60;;
7383;SDS011;3733;47.994;8.820;2024-03-08T11:47:38;30.70;;;14.97;;
7383;SDS011;3733;47.994;8.820;2024-03-08T11:50:06;30.43;;;15.00;;
7383;SDS011;3733;47.994;8.820;2024-03-08T11:52:35;32.30;;;16.07;;
7383;SDS011;3733;47.994;8.820;2024-03-08T11:55:01;31.00;;;15.87;;
7383;SDS011;3733;47.994;8.820;2024-03-08T11:57:30;26.00;;;14.63;;
7383;SDS011;3733;47.994;8.820;2024-03-08T11:59:56;31.63;;;15.03;;
7383;SDS011;3733;47.994;8.820;2024-03-08T12:02:23;26.67;;;14.20;;
7383;SDS011;3733;47.994;8.820;2024-03-08T12:04:56;30.73;;;16.23;;
7383;SDS011;3733;47.994;8.820;2024-03-08T12:07:24;30.80;;;15.53;;
7383;SDS011;3733;47.994;8.820;2024-03-08T12:12:57;25.07;;;13.83;;
7383;SDS011;3733;47.994;8.820;2024-03-08T12:15:28;28.63;;;14.73;;
7383;SDS011;3733;47.994;8.820;2024-03-08T12:17:54;25.33;;;13.13;;
7383;SDS011;3733;47.994;8.820;2024-03-08T12:22:51;24.77;;;14.50;;
7383;SDS011;3733;47.994;8.820;2024-03-08T12:25:19;28.53;;;14.80;;
7383;SDS011;3733;47.994;8.820;2024-03-08T12:27:45;28.53;;;15.27;;
7383;SDS011;3733;47.994;8.820;2024-03-08T12:30:21;29.00;;;15.23;;
7383;SDS011;3733;47.994;8.820;2024-03-08T12:35:14;27.03;;;14.80;;
7383;SDS011;3733;47.994;8.820;2024-03-08T12:37:39;26.83;;;14.30;;
7383;SDS011;3733;47.994;8.820;2024-03-08T12:40:09;25.80;;;14.57;;
7383;SDS011;3733;47.994;8.820;2024-03-08T12:42:35;22.00;;;12.97;;
7383;SDS011;3733;47.994;8.820;2024-03-08T12:45:01;27.53;;;14.27;;
7383;SDS011;3733;47.994;8.820;2024-03-08T12:47:28;26.57;;;13.10;;
7383;SDS011;3733;47.994;8.820;2024-03-08T12:49:55;29.73;;;14.10;;
7383;SDS011;3733;47.994;8.820;2024-03-08T12:52:20;24.30;;;14.60;;
7383;SDS011;3733;47.994;8.820;2024-03-08T12:54:46;25.23;;;14.80;;
7383;SDS011;3733;47.994;8.820;2024-03-08T12:57:12;26.60;;;13.33;;
7383;SDS011;3733;47.994;8.820;2024-03-08T12:59:38;21.20;;;13.17;;
7383;SDS011;3733;47.994;8.820;2024-03-08T13:02:04;20.17;;;12.53;;
7383;SDS011;3733;47.994;8.820;2024-03-08T13:04:31;25.20;;;13.40;;
7383;SDS011;3733;47.994;8.820;2024-03-08T13:06:57;21.77;;;12.90;;
7383;SDS011;3733;47.994;8.820;2024-03-08T13:09:23;26.60;;;14.40;;
7383;SDS011;3733;47.994;8.820;2024-03-08T13:11:52;20.60;;;13.03;;
7383;SDS011;3733;47.994;8.820;2024-03-08T13:14:20;22.43;;;13.27;;
7383;SDS011;3733;47.994;8.820;2024-03-08T13:16:46;17.43;;;11.60;;
7383;SDS011;3733;47.994;8.820;2024-03-08T13:19:13;20.80;;;13.17;;
7383;SDS011;3733;47.994;8.820;2024-03-08T13:21:38;23.63;;;13.30;;
7383;SDS011;3733;47.994;8.820;2024-03-08T13:24:04;21.10;;;12.70;;
7383;SDS011;3733;47.994;8.820;2024-03-08T13:26:30;20.03;;;12.03;;
7383;SDS011;3733;47.994;8.820;2024-03-08T13:28:58;19.33;;;11.67;;
7383;SDS011;3733;47.994;8.820;2024-03-08T13:31:24;19.83;;;11.70;;
7383;SDS011;3733;47.994;8.820;2024-03-08T13:33:50;18.57;;;11.47;;
7383;SDS011;3733;47.994;8.820;2024-03-08T13:36:22;18.10;;;11.90;;
7383;SDS011;3733;47.994;8.820;2024-03-08T13:38:48;22.60;;;11.20;;
7383;SDS011;3733;47.994;8.820;2024-03-08T13:41:14;21.60;;;12.53;;
7383;SDS011;3733;47.994;8.820;2024-03-08T13:43:42;19.87;;;12.20;;
7383;SDS011;3733;47.994;8.820;2024-03-08T13:46:14;19.67;;;11.67;;
7383;SDS011;3733;47.994;8.820;2024-03-08T13:48:40;22.77;;;12.30;;
7383;SDS011;3733;47.994;8.820;2024-03-08T13:51:06;22.60;;;13.77;;
7383;SDS011;3733;47.994;8.820;2024-03-08T13:53:33;21.77;;;13.27;;
7383;SDS011;3733;47.994;8.820;2024-03-08T13:56:00;20.20;;;12.80;;
7383;SDS011;3733;47.994;8.820;2024-03-08T13:58:28;22.97;;;13.07;;
7383;SDS011;3733;47.994;8.820;2024-03-08T14:00:54;24.10;;;13.97;;
7383;SDS011;3733;47.994;8.820;2024-03-08T14:03:20;21.83;;;13.13;;
7383;SDS011;3733;47.994;8.820;2024-03-08T14:05:46;20.33;;;12.40;;
7383;SDS011;3733;47.994;8.820;2024-03-08T14:08:12;20.67;;;13.20;;
7383;SDS011;3733;47.994;8.820;2024-03-08T14:10:38;19.60;;;12.00;;
7383;SDS011;3733;47.994;8.820;2024-03-08T14:13:04;19.33;;;12.50;;
7383;SDS011;3733;47.994;8.820;2024-03-08T14:15:31;25.07;;;12.47;;
7383;SDS011;3733;47.994;8.820;2024-03-08T14:17:57;20.10;;;11.50;;
7383;SDS011;3733;47.994;8.820;2024-03-08T14:20:23;18.57;;;12.13;;
7383;SDS011;3733;47.994;8.820;2024-03-08T14:22:53;21.37;;;12.07;;
7383;SDS011;3733;47.994;8.820;2024-03-08T14:25:19;17.90;;;11.00;;
7383;SDS011;3733;47.994;8.820;2024-03-08T14:27:48;18.20;;;12.30;;
7383;SDS011;3733;47.994;8.820;2024-03-08T14:30:15;19.60;;;12.23;;
7383;SDS011;3733;47.994;8.820;2024-03-08T14:32:57;20.40;;;12.50;;
7383;SDS011;3733;47.994;8.820;2024-03-08T14:35:30;19.37;;;10.90;;
7383;SDS011;3733;47.994;8.820;2024-03-08T14:37:56;21.37;;;12.13;;
7383;SDS011;3733;47.994;8.820;2024-03-08T14:40:23;16.80;;;11.10;;
7383;SDS011;3733;47.994;8.820;2024-03-08T14:42:50;17.33;;;11.10;;
7383;SDS011;3733;47.994;8.820;2024-03-08T14:45:16;18.37;;;11.07;;
7383;SDS011;3733;47.994;8.820;2024-03-08T14:47:44;16.70;;;11.13;;
7383;SDS011;3733;47.994;8.820;2024-03-08T14:50:17;21.23;;;11.43;;
7383;SDS011;3733;47.994;8.820;2024-03-08T14:52:43;16.33;;;10.40;;
7383;SDS011;3733;47.994;8.820;2024-03-08T14:55:09;16.47;;;10.83;;
7383;SDS011;3733;47.994;8.820;2024-03-08T14:57:39;18.50;;;10.87;;
7383;SDS011;3733;47.994;8.820;2024-03-08T15:00:10;16.67;;;10.77;;
7383;SDS011;3733;47.994;8.820;2024-03-08T15:02:52;20.77;;;11.17;;
7383;SDS011;3733;47.994;8.820;2024-03-08T15:05:21;19.10;;;11.90;;
7383;SDS011;3733;47.994;8.820;2024-03-08T15:07:51;17.00;;;11.13;;
7383;SDS011;3733;47.994;8.820;2024-03-08T15:10:17;21.87;;;13.43;;
7383;SDS011;3733;47.994;8.820;2024-03-08T15:12:45;17.67;;;11.70;;